HYS983 LUKK-LROP
Flight info
| Callsign | HYS983 |
|---|---|
| Flight time | 0h 40m |
| Altitude | 28000 |
| Route | LIPTA T34 KODRU DCT DENAK |
| Aircraft | A320/M-SDE3FGHIRWY/LB1 |
Departure
| Time | 2026-05-09 10:01 |
|---|---|
| Airport | Chişinău International Airport (LUKK) |
Arrival
| Time | 2026-05-09 10:41 |
|---|---|
| Airport | Bucharest Henri Coandă International Airport (LROP) |
| Time | Latitude | Longitude | Altitude | Speed | Heading |
|---|---|---|---|---|---|
| 2026-05-09 09:46 | 46.93375 | 28.93603 | 408 ft | 0 kts | 6° |
| 2026-05-09 09:55 | 46.93383 | 28.93605 | 408 ft | 3 kts | 6° |
| 2026-05-09 09:55 | 46.93407 | 28.93595 | 408 ft | 5 kts | 320° |
| 2026-05-09 09:55 | 46.93418 | 28.93535 | 408 ft | 8 kts | 276° |
| 2026-05-09 09:56 | 46.93428 | 28.93446 | 408 ft | 10 kts | 276° |
| 2026-05-09 09:56 | 46.93436 | 28.93327 | 408 ft | 13 kts | 276° |
| 2026-05-09 09:56 | 46.93448 | 28.93182 | 408 ft | 16 kts | 278° |
| 2026-05-09 09:56 | 46.93466 | 28.93010 | 408 ft | 19 kts | 279° |
| 2026-05-09 09:57 | 46.93482 | 28.92817 | 408 ft | 16 kts | 268° |
| 2026-05-09 09:57 | 46.93382 | 28.92752 | 408 ft | 19 kts | 186° |
| 2026-05-09 09:57 | 46.93262 | 28.92730 | 408 ft | 15 kts | 189° |
| 2026-05-09 09:57 | 46.93220 | 28.92600 | 406 ft | 18 kts | 276° |
| 2026-05-09 09:58 | 46.93240 | 28.92404 | 406 ft | 21 kts | 278° |
| 2026-05-09 09:58 | 46.93258 | 28.92183 | 407 ft | 23 kts | 276° |
| 2026-05-09 09:58 | 46.93183 | 28.92013 | 408 ft | 24 kts | 194° |
| 2026-05-09 09:58 | 46.93013 | 28.91989 | 406 ft | 26 kts | 178° |
| 2026-05-09 09:59 | 46.92890 | 28.91996 | 408 ft | 28 kts | 178° |
| 2026-05-09 09:59 | 46.92760 | 28.92058 | 409 ft | 16 kts | 105° |
| 2026-05-09 09:59 | 46.92759 | 28.92096 | 409 ft | 0 kts | 87° |
| 2026-05-09 10:00 | 46.92759 | 28.92098 | 409 ft | 1 kts | 87° |
| 2026-05-09 10:00 | 46.92764 | 28.92309 | 408 ft | 64 kts | 88° |
| 2026-05-09 10:00 | 46.92788 | 28.93433 | 412 ft | 151 kts | 89° |
| 2026-05-09 10:01 | 46.92817 | 28.95125 | 978 ft | 178 kts | 89° |
| 2026-05-09 10:01 | 46.92855 | 28.97089 | 1765 ft | 208 kts | 88° |
| 2026-05-09 10:01 | 46.92905 | 28.99323 | 2733 ft | 234 kts | 90° |
| 2026-05-09 10:01 | 46.92953 | 29.01800 | 3532 ft | 252 kts | 90° |
| 2026-05-09 10:02 | 46.92780 | 29.04357 | 4467 ft | 258 kts | 110° |
| 2026-05-09 10:02 | 46.91857 | 29.06612 | 5468 ft | 260 kts | 137° |
| 2026-05-09 10:02 | 46.90333 | 29.08003 | 6507 ft | 261 kts | 163° |
| 2026-05-09 10:02 | 46.88533 | 29.08232 | 7459 ft | 265 kts | 189° |
| 2026-05-09 10:03 | 46.86829 | 29.07175 | 8393 ft | 273 kts | 216° |
| 2026-05-09 10:03 | 46.85574 | 29.05052 | 9328 ft | 280 kts | 233° |
| 2026-05-09 10:03 | 46.84455 | 29.02690 | 10246 ft | 285 kts | 233° |
| 2026-05-09 10:03 | 46.83277 | 29.00208 | 10609 ft | 309 kts | 233° |
| 2026-05-09 10:04 | 46.81993 | 28.97537 | 10903 ft | 331 kts | 231° |
| 2026-05-09 10:04 | 46.80414 | 28.95031 | 11496 ft | 339 kts | 223° |
| 2026-05-09 10:04 | 46.78736 | 28.92571 | 12232 ft | 345 kts | 223° |
| 2026-05-09 10:04 | 46.77029 | 28.90077 | 12998 ft | 350 kts | 223° |
| 2026-05-09 10:05 | 46.75294 | 28.87544 | 13753 ft | 355 kts | 223° |
| 2026-05-09 10:05 | 46.73537 | 28.84982 | 14422 ft | 360 kts | 224° |
| 2026-05-09 10:05 | 46.71757 | 28.82382 | 15119 ft | 363 kts | 224° |
| 2026-05-09 10:05 | 46.69971 | 28.79771 | 15837 ft | 365 kts | 224° |
| 2026-05-09 10:06 | 46.68164 | 28.77137 | 16526 ft | 368 kts | 224° |
| 2026-05-09 10:06 | 46.66344 | 28.74489 | 17209 ft | 372 kts | 223° |
| 2026-05-09 10:06 | 46.64502 | 28.71821 | 17903 ft | 375 kts | 223° |
| 2026-05-09 10:06 | 46.62643 | 28.69133 | 18576 ft | 379 kts | 223° |
| 2026-05-09 10:07 | 46.60767 | 28.66421 | 19230 ft | 381 kts | 223° |
| 2026-05-09 10:07 | 46.58877 | 28.63691 | 19877 ft | 385 kts | 223° |
| 2026-05-09 10:07 | 46.56969 | 28.60931 | 20540 ft | 388 kts | 224° |
| 2026-05-09 10:07 | 46.55045 | 28.58144 | 21176 ft | 392 kts | 224° |
| 2026-05-09 10:08 | 46.53110 | 28.55341 | 21786 ft | 395 kts | 224° |
| 2026-05-09 10:08 | 46.51155 | 28.52513 | 22386 ft | 398 kts | 224° |
| 2026-05-09 10:08 | 46.49205 | 28.49706 | 22953 ft | 402 kts | 224° |
| 2026-05-09 10:08 | 46.47212 | 28.46844 | 23520 ft | 405 kts | 224° |
| 2026-05-09 10:09 | 46.45199 | 28.43956 | 23999 ft | 408 kts | 224° |
| 2026-05-09 10:09 | 46.43174 | 28.41055 | 24475 ft | 410 kts | 224° |
| 2026-05-09 10:09 | 46.41121 | 28.38156 | 24939 ft | 412 kts | 224° |
| 2026-05-09 10:09 | 46.39059 | 28.35253 | 25402 ft | 415 kts | 224° |
| 2026-05-09 10:10 | 46.36985 | 28.32327 | 25859 ft | 417 kts | 224° |
| 2026-05-09 10:10 | 46.34910 | 28.29382 | 26298 ft | 419 kts | 224° |
| 2026-05-09 10:10 | 46.32825 | 28.26414 | 26696 ft | 422 kts | 224° |
| 2026-05-09 10:10 | 46.30729 | 28.23421 | 27115 ft | 425 kts | 224° |
| 2026-05-09 10:11 | 46.28614 | 28.20397 | 27547 ft | 427 kts | 224° |
| 2026-05-09 10:11 | 46.26501 | 28.17374 | 27947 ft | 429 kts | 224° |
| 2026-05-09 10:11 | 46.24397 | 28.14314 | 28055 ft | 429 kts | 225° |
| 2026-05-09 10:12 | 46.20281 | 28.08099 | 28071 ft | 428 kts | 226° |
| 2026-05-09 10:12 | 46.16230 | 28.01882 | 28070 ft | 428 kts | 226° |
| 2026-05-09 10:13 | 46.12110 | 27.95608 | 28070 ft | 428 kts | 226° |
| 2026-05-09 10:13 | 46.08008 | 27.89434 | 28068 ft | 428 kts | 225° |
| 2026-05-09 10:14 | 46.03878 | 27.83242 | 28065 ft | 428 kts | 225° |
| 2026-05-09 10:14 | 45.99753 | 27.77060 | 28062 ft | 429 kts | 225° |
| 2026-05-09 10:15 | 45.95623 | 27.70871 | 28060 ft | 429 kts | 225° |
| 2026-05-09 10:15 | 45.91482 | 27.64684 | 28066 ft | 429 kts | 225° |
| 2026-05-09 10:16 | 45.87339 | 27.58504 | 28060 ft | 429 kts | 225° |
| 2026-05-09 10:16 | 45.83196 | 27.52347 | 28057 ft | 429 kts | 225° |
| 2026-05-09 10:17 | 45.79050 | 27.46192 | 28057 ft | 429 kts | 225° |
| 2026-05-09 10:17 | 45.74898 | 27.40050 | 28057 ft | 429 kts | 225° |
| 2026-05-09 10:18 | 45.70731 | 27.33910 | 28058 ft | 430 kts | 225° |
| 2026-05-09 10:18 | 45.66561 | 27.27775 | 28058 ft | 430 kts | 225° |
| 2026-05-09 10:19 | 45.62390 | 27.21636 | 28058 ft | 431 kts | 225° |
| 2026-05-09 10:19 | 45.58208 | 27.15496 | 28017 ft | 430 kts | 225° |
| 2026-05-09 10:19 | 45.56129 | 27.12455 | 27293 ft | 427 kts | 225° |
| 2026-05-09 10:20 | 45.54053 | 27.09424 | 26646 ft | 426 kts | 225° |
| 2026-05-09 10:20 | 45.51987 | 27.06408 | 25989 ft | 424 kts | 225° |
| 2026-05-09 10:20 | 45.49932 | 27.03410 | 25373 ft | 421 kts | 225° |
| 2026-05-09 10:20 | 45.47891 | 27.00432 | 24759 ft | 418 kts | 224° |
| 2026-05-09 10:21 | 45.45865 | 26.97481 | 24153 ft | 415 kts | 224° |
| 2026-05-09 10:21 | 45.43852 | 26.94556 | 23577 ft | 412 kts | 225° |
| 2026-05-09 10:21 | 45.41870 | 26.91678 | 22908 ft | 410 kts | 224° |
| 2026-05-09 10:21 | 45.39884 | 26.88795 | 22247 ft | 407 kts | 224° |
| 2026-05-09 10:22 | 45.37905 | 26.85925 | 21604 ft | 406 kts | 224° |
| 2026-05-09 10:22 | 45.35931 | 26.83065 | 20967 ft | 405 kts | 224° |
| 2026-05-09 10:22 | 45.33959 | 26.80216 | 20340 ft | 404 kts | 224° |
| 2026-05-09 10:22 | 45.31984 | 26.77368 | 19742 ft | 406 kts | 224° |
| 2026-05-09 10:23 | 45.29992 | 26.74495 | 19144 ft | 409 kts | 224° |
| 2026-05-09 10:23 | 45.27993 | 26.71612 | 18559 ft | 410 kts | 224° |
| 2026-05-09 10:23 | 45.25991 | 26.68726 | 17914 ft | 409 kts | 224° |
| 2026-05-09 10:23 | 45.24007 | 26.65862 | 17354 ft | 405 kts | 223° |
| 2026-05-09 10:24 | 45.22050 | 26.63036 | 16841 ft | 398 kts | 223° |
| 2026-05-09 10:24 | 45.20120 | 26.60261 | 16333 ft | 392 kts | 223° |
| 2026-05-09 10:24 | 45.18214 | 26.57527 | 15832 ft | 387 kts | 223° |
| 2026-05-09 10:24 | 45.16327 | 26.54825 | 15368 ft | 383 kts | 223° |
| 2026-05-09 10:25 | 45.14459 | 26.52156 | 14950 ft | 379 kts | 223° |
| 2026-05-09 10:25 | 45.12614 | 26.49528 | 14584 ft | 375 kts | 223° |
| 2026-05-09 10:25 | 45.10781 | 26.46917 | 14227 ft | 373 kts | 223° |
| 2026-05-09 10:25 | 45.08955 | 26.44313 | 13875 ft | 372 kts | 223° |
| 2026-05-09 10:26 | 45.07146 | 26.41728 | 13493 ft | 371 kts | 222° |
| 2026-05-09 10:26 | 45.05331 | 26.39137 | 13089 ft | 370 kts | 223° |
| 2026-05-09 10:26 | 45.03527 | 26.36564 | 12707 ft | 368 kts | 223° |
| 2026-05-09 10:26 | 45.01728 | 26.34000 | 12325 ft | 366 kts | 223° |
| 2026-05-09 10:27 | 44.99933 | 26.31450 | 11848 ft | 364 kts | 223° |
| 2026-05-09 10:27 | 44.98155 | 26.28929 | 11350 ft | 361 kts | 222° |
| 2026-05-09 10:27 | 44.96382 | 26.26417 | 10859 ft | 360 kts | 222° |
| 2026-05-09 10:27 | 44.94619 | 26.23922 | 10376 ft | 358 kts | 222° |
| 2026-05-09 10:28 | 44.92869 | 26.21449 | 9898 ft | 355 kts | 222° |
| 2026-05-09 10:28 | 44.91135 | 26.18998 | 9386 ft | 351 kts | 223° |
| 2026-05-09 10:28 | 44.89420 | 26.16577 | 8856 ft | 347 kts | 223° |
| 2026-05-09 10:28 | 44.87725 | 26.14183 | 8336 ft | 338 kts | 223° |
| 2026-05-09 10:29 | 44.86105 | 26.11892 | 7838 ft | 322 kts | 223° |
| 2026-05-09 10:29 | 44.84562 | 26.09709 | 7346 ft | 308 kts | 223° |
| 2026-05-09 10:29 | 44.83063 | 26.07594 | 6862 ft | 305 kts | 223° |
| 2026-05-09 10:29 | 44.81554 | 26.05474 | 6375 ft | 307 kts | 223° |
| 2026-05-09 10:30 | 44.80037 | 26.03351 | 5863 ft | 308 kts | 223° |
| 2026-05-09 10:30 | 44.78517 | 26.01221 | 5345 ft | 308 kts | 223° |
| 2026-05-09 10:30 | 44.77000 | 25.99095 | 4955 ft | 305 kts | 223° |
| 2026-05-09 10:30 | 44.75515 | 25.97012 | 4573 ft | 294 kts | 223° |
| 2026-05-09 10:31 | 44.74114 | 25.95042 | 4189 ft | 278 kts | 223° |
| 2026-05-09 10:31 | 44.72809 | 25.93204 | 4011 ft | 260 kts | 223° |
| 2026-05-09 10:31 | 44.71558 | 25.91442 | 4008 ft | 252 kts | 222° |
| 2026-05-09 10:31 | 44.70314 | 25.89706 | 4011 ft | 252 kts | 222° |
| 2026-05-09 10:32 | 44.69068 | 25.87980 | 4011 ft | 251 kts | 222° |
| 2026-05-09 10:32 | 44.67824 | 25.86254 | 4012 ft | 251 kts | 222° |
| 2026-05-09 10:32 | 44.66584 | 25.84529 | 4014 ft | 251 kts | 222° |
| 2026-05-09 10:32 | 44.65357 | 25.82771 | 4013 ft | 253 kts | 227° |
| 2026-05-09 10:33 | 44.64383 | 25.80710 | 4006 ft | 254 kts | 242° |
| 2026-05-09 10:33 | 44.63779 | 25.78378 | 4011 ft | 256 kts | 256° |
| 2026-05-09 10:33 | 44.63536 | 25.75899 | 4013 ft | 256 kts | 263° |
| 2026-05-09 10:33 | 44.63137 | 25.73539 | 3961 ft | 243 kts | 243° |
| 2026-05-09 10:34 | 44.62173 | 25.71695 | 3807 ft | 230 kts | 217° |
| 2026-05-09 10:34 | 44.59392 | 25.70280 | 3392 ft | 209 kts | 174° |
| 2026-05-09 10:34 | 44.57994 | 25.70712 | 3119 ft | 205 kts | 154° |
| 2026-05-09 10:35 | 44.56818 | 25.71779 | 2811 ft | 200 kts | 134° |
| 2026-05-09 10:35 | 44.56053 | 25.73170 | 2556 ft | 197 kts | 116° |
| 2026-05-09 10:35 | 44.55615 | 25.74977 | 2504 ft | 196 kts | 99° |
| 2026-05-09 10:35 | 44.55365 | 25.76868 | 2509 ft | 197 kts | 100° |
| 2026-05-09 10:36 | 44.55102 | 25.78763 | 2514 ft | 198 kts | 101° |
| 2026-05-09 10:36 | 44.54836 | 25.80670 | 2509 ft | 199 kts | 101° |
| 2026-05-09 10:36 | 44.54615 | 25.82573 | 2507 ft | 198 kts | 92° |
| 2026-05-09 10:36 | 44.54681 | 25.84508 | 2516 ft | 200 kts | 84° |
| 2026-05-09 10:37 | 44.54823 | 25.86410 | 2547 ft | 194 kts | 84° |
| 2026-05-09 10:37 | 44.54963 | 25.88248 | 2524 ft | 185 kts | 84° |
| 2026-05-09 10:37 | 44.55105 | 25.90025 | 2469 ft | 181 kts | 84° |
| 2026-05-09 10:37 | 44.55238 | 25.91746 | 2329 ft | 174 kts | 84° |
| 2026-05-09 10:38 | 44.55365 | 25.93380 | 2135 ft | 164 kts | 83° |
| 2026-05-09 10:38 | 44.55479 | 25.94855 | 1966 ft | 143 kts | 83° |
| 2026-05-09 10:38 | 44.55581 | 25.96170 | 1790 ft | 131 kts | 83° |
| 2026-05-09 10:38 | 44.55678 | 25.97430 | 1635 ft | 126 kts | 83° |
| 2026-05-09 10:39 | 44.55742 | 25.98231 | 1513 ft | 127 kts | 83° |
| 2026-05-09 10:39 | 44.55865 | 25.99848 | 1349 ft | 125 kts | 83° |
| 2026-05-09 10:39 | 44.55955 | 26.01050 | 1164 ft | 123 kts | 83° |
| 2026-05-09 10:39 | 44.56035 | 26.02249 | 1041 ft | 124 kts | 82° |
| 2026-05-09 10:40 | 44.56134 | 26.03467 | 901 ft | 128 kts | 80° |
| 2026-05-09 10:40 | 44.56208 | 26.04289 | 798 ft | 123 kts | 81° |
| 2026-05-09 10:40 | 44.56288 | 26.05459 | 661 ft | 120 kts | 82° |
| 2026-05-09 10:40 | 44.56374 | 26.06612 | 526 ft | 119 kts | 81° |
| 2026-05-09 10:41 | 44.56463 | 26.07715 | 371 ft | 117 kts | 80° |
| 2026-05-09 10:41 | 44.56549 | 26.08747 | 320 ft | 88 kts | 83° |
| 2026-05-09 10:41 | 44.56595 | 26.09398 | 322 ft | 56 kts | 84° |
| 2026-05-09 10:41 | 44.56632 | 26.09906 | 323 ft | 49 kts | 84° |
| 2026-05-09 10:42 | 44.56668 | 26.10370 | 323 ft | 47 kts | 84° |
| 2026-05-09 10:42 | 44.56696 | 26.10703 | 323 ft | 28 kts | 76° |
| 2026-05-09 10:42 | 44.56824 | 26.10756 | 322 ft | 23 kts | 354° |
| 2026-05-09 10:42 | 44.56979 | 26.10726 | 323 ft | 18 kts | 335° |
| 2026-05-09 10:43 | 44.57053 | 26.10593 | 323 ft | 16 kts | 299° |
| 2026-05-09 10:43 | 44.57068 | 26.10498 | 323 ft | 12 kts | 266° |
| 2026-05-09 10:43 | 44.57054 | 26.10334 | 323 ft | 22 kts | 264° |
| 2026-05-09 10:43 | 44.57035 | 26.10093 | 323 ft | 27 kts | 264° |
| 2026-05-09 10:44 | 44.57014 | 26.09812 | 323 ft | 31 kts | 264° |
| 2026-05-09 10:44 | 44.56992 | 26.09529 | 321 ft | 25 kts | 264° |
| 2026-05-09 10:44 | 44.56954 | 26.09448 | 323 ft | 8 kts | 164° |
| 2026-05-09 10:44 | 44.56934 | 26.09452 | 323 ft | 2 kts | 171° |
| 2026-05-09 10:45 | 44.56931 | 26.09453 | 323 ft | 0 kts | 171° |